New Liberty, Iowa
Current Conditions -  °F | °C
As of 10:52 AM on Tuesday 21 Oct 2014 (Local Time) from KDVN Reporting Station
Clear Clear  
Wind Chill: 53°   Ceiling: Unl
Heat Index: 53°   Visibility: 10mi
Dew Point: 39°   Wind: 12mph
Humidity: 59%   Direction: 40°NE
Pressure: 30.21"   Gusts: NA
Location:  41.72°N, 90.88°W
Report Text: KDVN 211552Z AUTO 04010KT 10SM CLR 12/04 A3021 RMK AO2 SLP232 T01170039 TSNO
Loading
Personal Weather Stations






























Interactive Weather Map
Tropical Storm Tracking
New forecast layout! Learn more

10-Day Weather Forecast

Advertisements
Track Severe Weather on mobile